sensor_id;sensor_type;location;lat;lon;timestamp;P1;durP1;ratioP1;P2;durP2;ratioP2
39066;SDS011;24821;51.988;6.020;2023-03-12T00:00:33;2.40;;;2.20;;
39066;SDS011;24821;51.988;6.020;2023-03-12T00:02:58;4.50;;;2.83;;
39066;SDS011;24821;51.988;6.020;2023-03-12T00:05:24;10.03;;;2.87;;
39066;SDS011;24821;51.988;6.020;2023-03-12T00:07:50;3.87;;;2.80;;
39066;SDS011;24821;51.988;6.020;2023-03-12T00:10:16;3.40;;;2.97;;
39066;SDS011;24821;51.988;6.020;2023-03-12T00:12:42;2.60;;;2.40;;
39066;SDS011;24821;51.988;6.020;2023-03-12T00:15:08;3.50;;;1.87;;
39066;SDS011;24821;51.988;6.020;2023-03-12T00:17:34;2.57;;;2.33;;
39066;SDS011;24821;51.988;6.020;2023-03-12T00:20:00;3.00;;;2.57;;
39066;SDS011;24821;51.988;6.020;2023-03-12T00:22:26;3.13;;;2.53;;
39066;SDS011;24821;51.988;6.020;2023-03-12T00:24:52;3.03;;;2.73;;
39066;SDS011;24821;51.988;6.020;2023-03-12T00:27:19;3.63;;;2.73;;
39066;SDS011;24821;51.988;6.020;2023-03-12T00:29:45;5.17;;;3.53;;
39066;SDS011;24821;51.988;6.020;2023-03-12T00:32:11;5.13;;;3.03;;
39066;SDS011;24821;51.988;6.020;2023-03-12T00:34:36;2.47;;;2.37;;
39066;SDS011;24821;51.988;6.020;2023-03-12T00:37:02;4.37;;;2.67;;
39066;SDS011;24821;51.988;6.020;2023-03-12T00:39:27;6.07;;;2.63;;
39066;SDS011;24821;51.988;6.020;2023-03-12T00:41:53;2.97;;;2.67;;
39066;SDS011;24821;51.988;6.020;2023-03-12T00:44:18;4.73;;;3.33;;
39066;SDS011;24821;51.988;6.020;2023-03-12T00:46:44;2.33;;;2.23;;
39066;SDS011;24821;51.988;6.020;2023-03-12T00:49:10;5.43;;;2.50;;
39066;SDS011;24821;51.988;6.020;2023-03-12T00:51:35;3.30;;;2.97;;
39066;SDS011;24821;51.988;6.020;2023-03-12T00:54:01;2.50;;;2.30;;
39066;SDS011;24821;51.988;6.020;2023-03-12T00:56:27;2.60;;;2.40;;
39066;SDS011;24821;51.988;6.020;2023-03-12T00:58:53;6.20;;;2.70;;
39066;SDS011;24821;51.988;6.020;2023-03-12T01:01:18;7.40;;;3.03;;
39066;SDS011;24821;51.988;6.020;2023-03-12T01:03:44;2.43;;;2.27;;
39066;SDS011;24821;51.988;6.020;2023-03-12T01:06:10;3.60;;;2.03;;
39066;SDS011;24821;51.988;6.020;2023-03-12T01:08:36;3.03;;;2.63;;
39066;SDS011;24821;51.988;6.020;2023-03-12T01:11:01;3.43;;;2.57;;
39066;SDS011;24821;51.988;6.020;2023-03-12T01:13:27;2.50;;;2.30;;
39066;SDS011;24821;51.988;6.020;2023-03-12T01:15:53;2.67;;;1.90;;
39066;SDS011;24821;51.988;6.020;2023-03-12T01:18:19;2.17;;;1.63;;
39066;SDS011;24821;51.988;6.020;2023-03-12T01:20:45;4.77;;;1.67;;
39066;SDS011;24821;51.988;6.020;2023-03-12T01:23:11;2.40;;;2.20;;
39066;SDS011;24821;51.988;6.020;2023-03-12T01:25:37;3.10;;;1.73;;
39066;SDS011;24821;51.988;6.020;2023-03-12T01:28:02;1.97;;;1.80;;
39066;SDS011;24821;51.988;6.020;2023-03-12T01:30:28;2.10;;;1.90;;
39066;SDS011;24821;51.988;6.020;2023-03-12T01:32:54;2.03;;;1.93;;
39066;SDS011;24821;51.988;6.020;2023-03-12T01:35:20;2.53;;;2.33;;
39066;SDS011;24821;51.988;6.020;2023-03-12T01:37:46;3.63;;;2.30;;
39066;SDS011;24821;51.988;6.020;2023-03-12T01:40:15;2.73;;;2.53;;
39066;SDS011;24821;51.988;6.020;2023-03-12T01:42:50;4.27;;;2.07;;
39066;SDS011;24821;51.988;6.020;2023-03-12T01:48:16;2.03;;;1.70;;
39066;SDS011;24821;51.988;6.020;2023-03-12T01:50:43;2.33;;;2.13;;
39066;SDS011;24821;51.988;6.020;2023-03-12T01:53:09;2.37;;;2.03;;
39066;SDS011;24821;51.988;6.020;2023-03-12T01:55:35;3.10;;;2.40;;
39066;SDS011;24821;51.988;6.020;2023-03-12T01:58:00;2.13;;;1.93;;
39066;SDS011;24821;51.988;6.020;2023-03-12T02:00:26;1.77;;;1.67;;
39066;SDS011;24821;51.988;6.020;2023-03-12T02:02:53;2.00;;;1.80;;
39066;SDS011;24821;51.988;6.020;2023-03-12T02:08:11;2.03;;;1.80;;
39066;SDS011;24821;51.988;6.020;2023-03-12T02:10:38;2.70;;;2.03;;
39066;SDS011;24821;51.988;6.020;2023-03-12T02:13:04;5.33;;;3.00;;
39066;SDS011;24821;51.988;6.020;2023-03-12T02:15:31;2.57;;;2.37;;
39066;SDS011;24821;51.988;6.020;2023-03-12T02:17:58;4.07;;;3.03;;
39066;SDS011;24821;51.988;6.020;2023-03-12T02:20:49;7.00;;;2.90;;
39066;SDS011;24821;51.988;6.020;2023-03-12T02:26:09;1.83;;;1.70;;
39066;SDS011;24821;51.988;6.020;2023-03-12T02:28:35;1.83;;;1.73;;
39066;SDS011;24821;51.988;6.020;2023-03-12T02:31:08;1.93;;;1.73;;
39066;SDS011;24821;51.988;6.020;2023-03-12T02:33:36;2.50;;;2.30;;
39066;SDS011;24821;51.988;6.020;2023-03-12T02:36:02;2.00;;;1.83;;
39066;SDS011;24821;51.988;6.020;2023-03-12T02:40:57;3.23;;;2.77;;
39066;SDS011;24821;51.988;6.020;2023-03-12T02:43:45;2.00;;;1.70;;
39066;SDS011;24821;51.988;6.020;2023-03-12T02:46:13;1.83;;;1.67;;
39066;SDS011;24821;51.988;6.020;2023-03-12T02:48:39;1.80;;;1.70;;
39066;SDS011;24821;51.988;6.020;2023-03-12T02:51:05;1.83;;;1.63;;
39066;SDS011;24821;51.988;6.020;2023-03-12T02:53:31;4.83;;;1.53;;
39066;SDS011;24821;51.988;6.020;2023-03-12T02:55:56;2.93;;;2.10;;
39066;SDS011;24821;51.988;6.020;2023-03-12T02:58:22;2.13;;;2.03;;
39066;SDS011;24821;51.988;6.020;2023-03-12T03:00:48;2.33;;;2.13;;
39066;SDS011;24821;51.988;6.020;2023-03-12T03:03:14;6.27;;;2.93;;
39066;SDS011;24821;51.988;6.020;2023-03-12T03:05:39;2.50;;;2.33;;
39066;SDS011;24821;51.988;6.020;2023-03-12T03:08:05;2.43;;;2.23;;
39066;SDS011;24821;51.988;6.020;2023-03-12T03:10:31;5.73;;;2.40;;
39066;SDS011;24821;51.988;6.020;2023-03-12T03:12:57;3.30;;;3.00;;
39066;SDS011;24821;51.988;6.020;2023-03-12T03:15:23;3.67;;;2.40;;
39066;SDS011;24821;51.988;6.020;2023-03-12T03:17:48;2.00;;;1.90;;
39066;SDS011;24821;51.988;6.020;2023-03-12T03:20:14;2.20;;;2.00;;
39066;SDS011;24821;51.988;6.020;2023-03-12T03:22:39;2.20;;;2.00;;
39066;SDS011;24821;51.988;6.020;2023-03-12T03:25:06;1.50;;;1.40;;
39066;SDS011;24821;51.988;6.020;2023-03-12T03:27:32;1.63;;;1.53;;
39066;SDS011;24821;51.988;6.020;2023-03-12T03:29:58;1.83;;;1.73;;
39066;SDS011;24821;51.988;6.020;2023-03-12T03:32:23;2.20;;;1.70;;
39066;SDS011;24821;51.988;6.020;2023-03-12T03:34:49;1.93;;;1.83;;
39066;SDS011;24821;51.988;6.020;2023-03-12T03:37:15;1.83;;;1.73;;
39066;SDS011;24821;51.988;6.020;2023-03-12T03:39:40;6.87;;;2.17;;
39066;SDS011;24821;51.988;6.020;2023-03-12T03:42:06;2.40;;;1.57;;
39066;SDS011;24821;51.988;6.020;2023-03-12T03:44:31;2.17;;;1.80;;
39066;SDS011;24821;51.988;6.020;2023-03-12T03:46:57;1.83;;;1.13;;
39066;SDS011;24821;51.988;6.020;2023-03-12T03:49:22;1.87;;;1.57;;
39066;SDS011;24821;51.988;6.020;2023-03-12T03:51:48;1.90;;;1.80;;
39066;SDS011;24821;51.988;6.020;2023-03-12T03:54:15;1.67;;;1.57;;
39066;SDS011;24821;51.988;6.020;2023-03-12T03:56:42;3.93;;;2.47;;
39066;SDS011;24821;51.988;6.020;2023-03-12T03:59:07;3.93;;;1.93;;
39066;SDS011;24821;51.988;6.020;2023-03-12T04:01:33;2.67;;;1.97;;
39066;SDS011;24821;51.988;6.020;2023-03-12T04:03:59;2.27;;;1.90;;
39066;SDS011;24821;51.988;6.020;2023-03-12T04:06:24;2.33;;;2.17;;
39066;SDS011;24821;51.988;6.020;2023-03-12T04:08:50;5.10;;;2.03;;
39066;SDS011;24821;51.988;6.020;2023-03-12T04:11:17;1.60;;;1.50;;
39066;SDS011;24821;51.988;6.020;2023-03-12T04:13:45;2.53;;;1.93;;
39066;SDS011;24821;51.988;6.020;2023-03-12T04:16:11;3.03;;;2.10;;
39066;SDS011;24821;51.988;6.020;2023-03-12T04:18:38;2.00;;;1.47;;
39066;SDS011;24821;51.988;6.020;2023-03-12T04:21:05;2.40;;;2.17;;
39066;SDS011;24821;51.988;6.020;2023-03-12T04:23:32;11.13;;;2.87;;
39066;SDS011;24821;51.988;6.020;2023-03-12T04:25:58;2.97;;;2.67;;
39066;SDS011;24821;51.988;6.020;2023-03-12T04:28:24;2.37;;;2.17;;
39066;SDS011;24821;51.988;6.020;2023-03-12T04:30:54;2.37;;;2.17;;
39066;SDS011;24821;51.988;6.020;2023-03-12T04:33:24;2.03;;;1.70;;
39066;SDS011;24821;51.988;6.020;2023-03-12T04:35:53;3.90;;;2.93;;
39066;SDS011;24821;51.988;6.020;2023-03-12T04:38:19;5.70;;;2.00;;
39066;SDS011;24821;51.988;6.020;2023-03-12T04:40:46;1.60;;;1.50;;
39066;SDS011;24821;51.988;6.020;2023-03-12T04:43:12;2.43;;;1.60;;
39066;SDS011;24821;51.988;6.020;2023-03-12T04:45:38;4.47;;;2.43;;
39066;SDS011;24821;51.988;6.020;2023-03-12T04:48:04;3.93;;;1.73;;
39066;SDS011;24821;51.988;6.020;2023-03-12T04:50:30;3.73;;;2.13;;
39066;SDS011;24821;51.988;6.020;2023-03-12T04:52:56;1.90;;;1.80;;
39066;SDS011;24821;51.988;6.020;2023-03-12T04:55:21;2.73;;;1.83;;
39066;SDS011;24821;51.988;6.020;2023-03-12T04:57:47;2.43;;;2.23;;
39066;SDS011;24821;51.988;6.020;2023-03-12T05:00:12;3.23;;;1.50;;
39066;SDS011;24821;51.988;6.020;2023-03-12T05:02:39;1.83;;;1.67;;
39066;SDS011;24821;51.988;6.020;2023-03-12T05:05:05;2.00;;;1.50;;
39066;SDS011;24821;51.988;6.020;2023-03-12T05:07:32;1.83;;;1.50;;
39066;SDS011;24821;51.988;6.020;2023-03-12T05:09:58;1.63;;;1.53;;
39066;SDS011;24821;51.988;6.020;2023-03-12T05:12:23;1.73;;;1.63;;
39066;SDS011;24821;51.988;6.020;2023-03-12T05:14:49;1.70;;;1.60;;
39066;SDS011;24821;51.988;6.020;2023-03-12T05:17:14;1.40;;;1.30;;
39066;SDS011;24821;51.988;6.020;2023-03-12T05:19:40;1.30;;;1.20;;
39066;SDS011;24821;51.988;6.020;2023-03-12T05:22:05;1.80;;;1.70;;
39066;SDS011;24821;51.988;6.020;2023-03-12T05:24:31;7.60;;;1.90;;
39066;SDS011;24821;51.988;6.020;2023-03-12T05:26:57;1.60;;;1.50;;
39066;SDS011;24821;51.988;6.020;2023-03-12T05:29:22;1.70;;;1.60;;
39066;SDS011;24821;51.988;6.020;2023-03-12T05:31:48;3.43;;;1.90;;
39066;SDS011;24821;51.988;6.020;2023-03-12T05:34:14;1.47;;;1.37;;
39066;SDS011;24821;51.988;6.020;2023-03-12T05:36:40;4.43;;;2.13;;
39066;SDS011;24821;51.988;6.020;2023-03-12T05:39:06;3.17;;;2.23;;
39066;SDS011;24821;51.988;6.020;2023-03-12T05:41:31;2.20;;;2.03;;
39066;SDS011;24821;51.988;6.020;2023-03-12T05:43:57;2.17;;;2.00;;
39066;SDS011;24821;51.988;6.020;2023-03-12T05:46:23;2.27;;;1.50;;
39066;SDS011;24821;51.988;6.020;2023-03-12T05:48:50;1.97;;;1.77;;
39066;SDS011;24821;51.988;6.020;2023-03-12T05:51:16;1.43;;;1.33;;
39066;SDS011;24821;51.988;6.020;2023-03-12T05:53:42;3.20;;;2.30;;
39066;SDS011;24821;51.988;6.020;2023-03-12T05:56:09;7.60;;;2.17;;
39066;SDS011;24821;51.988;6.020;2023-03-12T05:58:37;4.33;;;1.47;;
39066;SDS011;24821;51.988;6.020;2023-03-12T06:01:09;3.53;;;2.03;;
39066;SDS011;24821;51.988;6.020;2023-03-12T06:03:39;2.50;;;2.30;;
39066;SDS011;24821;51.988;6.020;2023-03-12T06:06:06;5.97;;;3.03;;
39066;SDS011;24821;51.988;6.020;2023-03-12T06:08:33;1.33;;;1.20;;
39066;SDS011;24821;51.988;6.020;2023-03-12T06:10:58;2.87;;;2.60;;
39066;SDS011;24821;51.988;6.020;2023-03-12T06:13:24;1.50;;;1.40;;
39066;SDS011;24821;51.988;6.020;2023-03-12T06:15:51;2.93;;;2.13;;
39066;SDS011;24821;51.988;6.020;2023-03-12T06:18:16;11.60;;;2.30;;
39066;SDS011;24821;51.988;6.020;2023-03-12T06:20:42;2.17;;;1.93;;
39066;SDS011;24821;51.988;6.020;2023-03-12T06:23:07;2.20;;;2.00;;
39066;SDS011;24821;51.988;6.020;2023-03-12T06:25:33;5.47;;;2.53;;
39066;SDS011;24821;51.988;6.020;2023-03-12T06:27:59;1.57;;;1.33;;
39066;SDS011;24821;51.988;6.020;2023-03-12T06:30:24;1.73;;;1.63;;
39066;SDS011;24821;51.988;6.020;2023-03-12T06:32:51;4.30;;;2.30;;
39066;SDS011;24821;51.988;6.020;2023-03-12T06:35:18;1.87;;;1.77;;
39066;SDS011;24821;51.988;6.020;2023-03-12T06:37:44;2.10;;;1.90;;
39066;SDS011;24821;51.988;6.020;2023-03-12T06:40:10;3.40;;;2.20;;
39066;SDS011;24821;51.988;6.020;2023-03-12T06:42:37;1.73;;;1.57;;
39066;SDS011;24821;51.988;6.020;2023-03-12T06:45:03;2.27;;;1.93;;
39066;SDS011;24821;51.988;6.020;2023-03-12T06:47:30;4.53;;;2.57;;
39066;SDS011;24821;51.988;6.020;2023-03-12T06:49:55;1.93;;;1.73;;
39066;SDS011;24821;51.988;6.020;2023-03-12T06:52:21;11.90;;;2.07;;
39066;SDS011;24821;51.988;6.020;2023-03-12T06:54:47;4.47;;;2.20;;
39066;SDS011;24821;51.988;6.020;2023-03-12T06:57:12;5.93;;;2.13;;
39066;SDS011;24821;51.988;6.020;2023-03-12T06:59:40;2.50;;;2.20;;
39066;SDS011;24821;51.988;6.020;2023-03-12T07:02:08;3.03;;;2.77;;
39066;SDS011;24821;51.988;6.020;2023-03-12T07:04:35;4.70;;;1.93;;
39066;SDS011;24821;51.988;6.020;2023-03-12T07:07:00;6.67;;;3.33;;
39066;SDS011;24821;51.988;6.020;2023-03-12T07:09:26;3.07;;;2.27;;
39066;SDS011;24821;51.988;6.020;2023-03-12T07:11:51;2.87;;;2.67;;
39066;SDS011;24821;51.988;6.020;2023-03-12T07:14:17;1.70;;;1.60;;
39066;SDS011;24821;51.988;6.020;2023-03-12T07:16:44;2.30;;;1.90;;
39066;SDS011;24821;51.988;6.020;2023-03-12T07:19:09;2.03;;;1.93;;
39066;SDS011;24821;51.988;6.020;2023-03-12T07:21:35;2.40;;;2.20;;
39066;SDS011;24821;51.988;6.020;2023-03-12T07:24:01;3.13;;;2.57;;
39066;SDS011;24821;51.988;6.020;2023-03-12T07:26:30;3.83;;;3.10;;
39066;SDS011;24821;51.988;6.020;2023-03-12T07:28:57;3.33;;;2.57;;
39066;SDS011;24821;51.988;6.020;2023-03-12T07:31:22;2.47;;;2.27;;
39066;SDS011;24821;51.988;6.020;2023-03-12T07:33:48;2.63;;;2.07;;
39066;SDS011;24821;51.988;6.020;2023-03-12T07:36:13;5.50;;;2.50;;
39066;SDS011;24821;51.988;6.020;2023-03-12T07:38:39;2.23;;;2.00;;
39066;SDS011;24821;51.988;6.020;2023-03-12T07:41:04;2.07;;;1.93;;
39066;SDS011;24821;51.988;6.020;2023-03-12T07:43:30;2.73;;;2.53;;
39066;SDS011;24821;51.988;6.020;2023-03-12T07:45:56;4.40;;;2.43;;
39066;SDS011;24821;51.988;6.020;2023-03-12T07:48:21;2.77;;;2.53;;
39066;SDS011;24821;51.988;6.020;2023-03-12T07:50:47;3.63;;;2.40;;
39066;SDS011;24821;51.988;6.020;2023-03-12T07:53:13;6.50;;;3.40;;
39066;SDS011;24821;51.988;6.020;2023-03-12T07:55:38;4.80;;;3.43;;
39066;SDS011;24821;51.988;6.020;2023-03-12T07:58:04;3.50;;;2.53;;
39066;SDS011;24821;51.988;6.020;2023-03-12T08:00:29;3.20;;;2.67;;
39066;SDS011;24821;51.988;6.020;2023-03-12T08:02:55;5.87;;;2.40;;
39066;SDS011;24821;51.988;6.020;2023-03-12T08:05:21;2.57;;;2.07;;
39066;SDS011;24821;51.988;6.020;2023-03-12T08:07:49;2.20;;;2.00;;
39066;SDS011;24821;51.988;6.020;2023-03-12T08:10:18;3.23;;;1.73;;
39066;SDS011;24821;51.988;6.020;2023-03-12T08:12:45;2.13;;;1.67;;
39066;SDS011;24821;51.988;6.020;2023-03-12T08:15:10;3.23;;;2.07;;
39066;SDS011;24821;51.988;6.020;2023-03-12T08:17:37;2.23;;;1.80;;
39066;SDS011;24821;51.988;6.020;2023-03-12T08:20:03;5.40;;;3.57;;
39066;SDS011;24821;51.988;6.020;2023-03-12T08:22:33;10.53;;;6.10;;
39066;SDS011;24821;51.988;6.020;2023-03-12T08:24:58;4.33;;;3.13;;
39066;SDS011;24821;51.988;6.020;2023-03-12T08:27:24;8.90;;;2.87;;
39066;SDS011;24821;51.988;6.020;2023-03-12T08:29:49;6.13;;;3.00;;
39066;SDS011;24821;51.988;6.020;2023-03-12T08:32:15;3.93;;;3.50;;
39066;SDS011;24821;51.988;6.020;2023-03-12T08:34:41;26.07;;;12.90;;
39066;SDS011;24821;51.988;6.020;2023-03-12T08:37:06;14.60;;;7.67;;
39066;SDS011;24821;51.988;6.020;2023-03-12T08:39:32;5.50;;;4.20;;
39066;SDS011;24821;51.988;6.020;2023-03-12T08:41:58;6.03;;;5.23;;
39066;SDS011;24821;51.988;6.020;2023-03-12T08:44:24;5.23;;;4.17;;
39066;SDS011;24821;51.988;6.020;2023-03-12T08:46:50;9.50;;;7.63;;
39066;SDS011;24821;51.988;6.020;2023-03-12T08:49:16;6.93;;;6.07;;
39066;SDS011;24821;51.988;6.020;2023-03-12T08:51:42;10.40;;;4.63;;
39066;SDS011;24821;51.988;6.020;2023-03-12T08:54:08;6.60;;;4.60;;
39066;SDS011;24821;51.988;6.020;2023-03-12T08:56:34;5.53;;;4.43;;
39066;SDS011;24821;51.988;6.020;2023-03-12T08:59:06;6.43;;;5.23;;
39066;SDS011;24821;51.988;6.020;2023-03-12T09:01:35;4.83;;;4.30;;
39066;SDS011;24821;51.988;6.020;2023-03-12T09:04:02;3.57;;;3.27;;
39066;SDS011;24821;51.988;6.020;2023-03-12T09:06:28;6.50;;;2.67;;
39066;SDS011;24821;51.988;6.020;2023-03-12T09:08:53;4.90;;;3.47;;
39066;SDS011;24821;51.988;6.020;2023-03-12T09:11:19;5.03;;;4.63;;
39066;SDS011;24821;51.988;6.020;2023-03-12T09:13:44;4.33;;;3.93;;
39066;SDS011;24821;51.988;6.020;2023-03-12T09:16:10;4.13;;;3.70;;
39066;SDS011;24821;51.988;6.020;2023-03-12T09:18:35;4.73;;;4.07;;
39066;SDS011;24821;51.988;6.020;2023-03-12T09:21:01;6.23;;;4.13;;
39066;SDS011;24821;51.988;6.020;2023-03-12T09:23:27;5.37;;;3.63;;
39066;SDS011;24821;51.988;6.020;2023-03-12T09:25:53;6.80;;;3.23;;
39066;SDS011;24821;51.988;6.020;2023-03-12T09:28:19;5.00;;;4.03;;
39066;SDS011;24821;51.988;6.020;2023-03-12T09:30:45;4.80;;;4.07;;
39066;SDS011;24821;51.988;6.020;2023-03-12T09:33:11;2.87;;;2.67;;
39066;SDS011;24821;51.988;6.020;2023-03-12T09:35:39;7.23;;;3.80;;
39066;SDS011;24821;51.988;6.020;2023-03-12T09:38:05;4.30;;;3.90;;
39066;SDS011;24821;51.988;6.020;2023-03-12T09:40:31;9.70;;;4.07;;
39066;SDS011;24821;51.988;6.020;2023-03-12T09:43:02;5.30;;;4.00;;
39066;SDS011;24821;51.988;6.020;2023-03-12T09:45:31;8.33;;;5.07;;
39066;SDS011;24821;51.988;6.020;2023-03-12T09:48:03;4.03;;;3.70;;
39066;SDS011;24821;51.988;6.020;2023-03-12T09:50:34;5.90;;;4.47;;
39066;SDS011;24821;51.988;6.020;2023-03-12T09:55:43;5.27;;;4.27;;
39066;SDS011;24821;51.988;6.020;2023-03-12T09:58:13;5.70;;;4.23;;
39066;SDS011;24821;51.988;6.020;2023-03-12T10:00:57;5.17;;;4.67;;
39066;SDS011;24821;51.988;6.020;2023-03-12T10:03:29;4.90;;;4.40;;
39066;SDS011;24821;51.988;6.020;2023-03-12T10:06:13;4.85;;;4.40;;
39066;SDS011;24821;51.988;6.020;2023-03-12T10:11:51;6.87;;;6.17;;
39066;SDS011;24821;51.988;6.020;2023-03-12T10:17:42;12.10;;;7.23;;
39066;SDS011;24821;51.988;6.020;2023-03-12T10:20:19;19.35;;;11.10;;
39066;SDS011;24821;51.988;6.020;2023-03-12T10:28:42;17.02;;;10.57;;
39066;SDS011;24821;51.988;6.020;2023-03-12T10:31:36;10.30;;;7.45;;
39066;SDS011;24821;51.988;6.020;2023-03-12T10:34:13;14.35;;;8.45;;
39066;SDS011;24821;51.988;6.020;2023-03-12T10:36:45;10.30;;;7.53;;
39066;SDS011;24821;51.988;6.020;2023-03-12T10:39:15;10.38;;;7.70;;
39066;SDS011;24821;51.988;6.020;2023-03-12T10:41:42;7.57;;;6.78;;
39066;SDS011;24821;51.988;6.020;2023-03-12T10:44:13;8.70;;;7.53;;
39066;SDS011;24821;51.988;6.020;2023-03-12T10:49:25;10.63;;;8.13;;
39066;SDS011;24821;51.988;6.020;2023-03-12T10:52:09;8.75;;;7.40;;
39066;SDS011;24821;51.988;6.020;2023-03-12T10:54:41;13.00;;;8.95;;
39066;SDS011;24821;51.988;6.020;2023-03-12T10:57:09;11.57;;;8.60;;
39066;SDS011;24821;51.988;6.020;2023-03-12T10:59:36;12.70;;;9.20;;
39066;SDS011;24821;51.988;6.020;2023-03-12T11:04:56;15.20;;;8.85;;
39066;SDS011;24821;51.988;6.020;2023-03-12T11:07:30;19.27;;;11.23;;
39066;SDS011;24821;51.988;6.020;2023-03-12T11:12:32;20.25;;;10.73;;
39066;SDS011;24821;51.988;6.020;2023-03-12T11:15:16;17.27;;;11.63;;
39066;SDS011;24821;51.988;6.020;2023-03-12T11:17:44;13.05;;;11.70;;
39066;SDS011;24821;51.988;6.020;2023-03-12T11:22:49;13.43;;;10.68;;
39066;SDS011;24821;51.988;6.020;2023-03-12T11:25:25;12.50;;;10.05;;
39066;SDS011;24821;51.988;6.020;2023-03-12T11:27:53;12.43;;;11.10;;
39066;SDS011;24821;51.988;6.020;2023-03-12T11:30:24;19.13;;;12.30;;
39066;SDS011;24821;51.988;6.020;2023-03-12T11:33:02;17.58;;;9.38;;
39066;SDS011;24821;51.988;6.020;2023-03-12T11:35:42;21.50;;;13.20;;
39066;SDS011;24821;51.988;6.020;2023-03-12T11:43:37;14.63;;;10.20;;
39066;SDS011;24821;51.988;6.020;2023-03-12T11:46:28;21.23;;;11.35;;
39066;SDS011;24821;51.988;6.020;2023-03-12T11:49:13;11.90;;;9.80;;
39066;SDS011;24821;51.988;6.020;2023-03-12T11:58:11;11.57;;;9.23;;
39066;SDS011;24821;51.988;6.020;2023-03-12T12:00:43;17.13;;;11.75;;
39066;SDS011;24821;51.988;6.020;2023-03-12T12:11:35;19.67;;;8.95;;
39066;SDS011;24821;51.988;6.020;2023-03-12T12:14:37;10.13;;;7.63;;
39066;SDS011;24821;51.988;6.020;2023-03-12T12:19:53;18.58;;;8.40;;
39066;SDS011;24821;51.988;6.020;2023-03-12T12:22:46;22.98;;;8.10;;
39066;SDS011;24821;51.988;6.020;2023-03-12T12:25:21;13.05;;;6.70;;
39066;SDS011;24821;51.988;6.020;2023-03-12T12:31:02;13.85;;;6.68;;
39066;SDS011;24821;51.988;6.020;2023-03-12T12:34:13;11.80;;;5.93;;
39066;SDS011;24821;51.988;6.020;2023-03-12T12:36:43;15.40;;;6.15;;
39066;SDS011;24821;51.988;6.020;2023-03-12T12:42:03;12.98;;;5.53;;
39066;SDS011;24821;51.988;6.020;2023-03-12T12:44:40;13.52;;;6.20;;
39066;SDS011;24821;51.988;6.020;2023-03-12T12:50:25;14.45;;;6.55;;
39066;SDS011;24821;51.988;6.020;2023-03-12T12:52:56;18.08;;;7.05;;
39066;SDS011;24821;51.988;6.020;2023-03-12T12:55:31;7.78;;;6.00;;
39066;SDS011;24821;51.988;6.020;2023-03-12T12:58:03;14.02;;;6.38;;
39066;SDS011;24821;51.988;6.020;2023-03-12T13:00:54;25.52;;;6.85;;
39066;SDS011;24821;51.988;6.020;2023-03-12T13:03:24;11.13;;;5.85;;
39066;SDS011;24821;51.988;6.020;2023-03-12T13:08:33;13.48;;;6.07;;
39066;SDS011;24821;51.988;6.020;2023-03-12T13:11:24;19.92;;;6.43;;
39066;SDS011;24821;51.988;6.020;2023-03-12T13:19:23;22.60;;;5.68;;
39066;SDS011;24821;51.988;6.020;2023-03-12T13:27:17;11.63;;;5.30;;
39066;SDS011;24821;51.988;6.020;2023-03-12T13:29:48;11.55;;;5.30;;
39066;SDS011;24821;51.988;6.020;2023-03-12T13:48:13;26.65;;;8.27;;
39066;SDS011;24821;51.988;6.020;2023-03-12T13:50:47;18.30;;;9.65;;
39066;SDS011;24821;51.988;6.020;2023-03-12T13:53:27;24.25;;;7.43;;
39066;SDS011;24821;51.988;6.020;2023-03-12T13:55:59;21.33;;;8.07;;
39066;SDS011;24821;51.988;6.020;2023-03-12T13:58:28;23.88;;;9.07;;
39066;SDS011;24821;51.988;6.020;2023-03-12T14:01:01;19.48;;;8.05;;
39066;SDS011;24821;51.988;6.020;2023-03-12T14:03:36;25.75;;;8.00;;
39066;SDS011;24821;51.988;6.020;2023-03-12T14:06:15;28.17;;;6.67;;
39066;SDS011;24821;51.988;6.020;2023-03-12T14:17:39;20.77;;;5.85;;
39066;SDS011;24821;51.988;6.020;2023-03-12T14:20:10;14.70;;;5.70;;
39066;SDS011;24821;51.988;6.020;2023-03-12T14:22:51;22.35;;;6.43;;
39066;SDS011;24821;51.988;6.020;2023-03-12T14:25:33;19.20;;;6.35;;
39066;SDS011;24821;51.988;6.020;2023-03-12T14:28:08;12.82;;;6.20;;
39066;SDS011;24821;51.988;6.020;2023-03-12T14:30:47;15.32;;;5.72;;
39066;SDS011;24821;51.988;6.020;2023-03-12T14:33:13;24.45;;;5.68;;
39066;SDS011;24821;51.988;6.020;2023-03-12T14:35:44;20.23;;;6.00;;
39066;SDS011;24821;51.988;6.020;2023-03-12T14:40:42;11.05;;;5.05;;
39066;SDS011;24821;51.988;6.020;2023-03-12T14:43:21;8.30;;;4.70;;
39066;SDS011;24821;51.988;6.020;2023-03-12T14:45:59;11.25;;;5.03;;
39066;SDS011;24821;51.988;6.020;2023-03-12T14:48:35;18.98;;;5.03;;
39066;SDS011;24821;51.988;6.020;2023-03-12T14:51:02;21.00;;;4.30;;
39066;SDS011;24821;51.988;6.020;2023-03-12T14:53:32;9.43;;;3.95;;
39066;SDS011;24821;51.988;6.020;2023-03-12T14:58:31;13.93;;;3.67;;
39066;SDS011;24821;51.988;6.020;2023-03-12T15:00:59;13.05;;;3.38;;
39066;SDS011;24821;51.988;6.020;2023-03-12T15:03:27;6.13;;;3.60;;
39066;SDS011;24821;51.988;6.020;2023-03-12T15:05:53;6.75;;;3.53;;
39066;SDS011;24821;51.988;6.020;2023-03-12T15:08:20;11.90;;;3.10;;
39066;SDS011;24821;51.988;6.020;2023-03-12T15:10:50;11.25;;;2.65;;
39066;SDS011;24821;51.988;6.020;2023-03-12T15:13:22;12.27;;;4.40;;
39066;SDS011;24821;51.988;6.020;2023-03-12T15:15:51;11.50;;;4.00;;
39066;SDS011;24821;51.988;6.020;2023-03-12T15:18:23;17.45;;;3.75;;
39066;SDS011;24821;51.988;6.020;2023-03-12T15:20:52;15.90;;;3.92;;
39066;SDS011;24821;51.988;6.020;2023-03-12T15:23:20;16.63;;;3.92;;
39066;SDS011;24821;51.988;6.020;2023-03-12T15:25:47;14.38;;;3.63;;
39066;SDS011;24821;51.988;6.020;2023-03-12T15:28:32;17.27;;;5.28;;
39066;SDS011;24821;51.988;6.020;2023-03-12T15:31:08;8.57;;;3.13;;
39066;SDS011;24821;51.988;6.020;2023-03-12T15:33:36;7.50;;;3.03;;
39066;SDS011;24821;51.988;6.020;2023-03-12T15:36:24;27.10;;;4.60;;
39066;SDS011;24821;51.988;6.020;2023-03-12T15:38:51;16.15;;;4.60;;
39066;SDS011;24821;51.988;6.020;2023-03-12T15:41:27;14.98;;;4.05;;
39066;SDS011;24821;51.988;6.020;2023-03-12T15:44:04;16.92;;;4.95;;
39066;SDS011;24821;51.988;6.020;2023-03-12T15:46:29;6.20;;;3.42;;
39066;SDS011;24821;51.988;6.020;2023-03-12T15:48:56;11.35;;;3.83;;
39066;SDS011;24821;51.988;6.020;2023-03-12T15:51:29;9.18;;;3.25;;
39066;SDS011;24821;51.988;6.020;2023-03-12T15:53:58;16.13;;;3.97;;
39066;SDS011;24821;51.988;6.020;2023-03-12T15:56:42;7.32;;;4.18;;
39066;SDS011;24821;51.988;6.020;2023-03-12T16:01:43;9.13;;;3.30;;
39066;SDS011;24821;51.988;6.020;2023-03-12T16:04:11;9.55;;;3.92;;
39066;SDS011;24821;51.988;6.020;2023-03-12T16:06:37;16.42;;;5.80;;
39066;SDS011;24821;51.988;6.020;2023-03-12T16:09:03;16.08;;;3.67;;
39066;SDS011;24821;51.988;6.020;2023-03-12T16:11:30;15.18;;;3.70;;
39066;SDS011;24821;51.988;6.020;2023-03-12T16:14:19;18.20;;;4.50;;
39066;SDS011;24821;51.988;6.020;2023-03-12T16:16:51;11.85;;;4.32;;
39066;SDS011;24821;51.988;6.020;2023-03-12T16:19:18;20.63;;;3.85;;
39066;SDS011;24821;51.988;6.020;2023-03-12T16:21:45;5.85;;;3.05;;
39066;SDS011;24821;51.988;6.020;2023-03-12T16:24:11;37.60;;;4.13;;
39066;SDS011;24821;51.988;6.020;2023-03-12T16:26:50;3.13;;;2.10;;
39066;SDS011;24821;51.988;6.020;2023-03-12T16:29:18;14.43;;;4.35;;
39066;SDS011;24821;51.988;6.020;2023-03-12T16:31:49;17.08;;;5.07;;
39066;SDS011;24821;51.988;6.020;2023-03-12T16:34:18;8.50;;;3.22;;
39066;SDS011;24821;51.988;6.020;2023-03-12T16:36:43;16.30;;;5.57;;
39066;SDS011;24821;51.988;6.020;2023-03-12T16:39:09;15.95;;;3.78;;
39066;SDS011;24821;51.988;6.020;2023-03-12T16:41:34;11.75;;;2.92;;
39066;SDS011;24821;51.988;6.020;2023-03-12T16:44:00;10.73;;;3.75;;
39066;SDS011;24821;51.988;6.020;2023-03-12T16:46:29;15.07;;;4.07;;